Česky Dansk Deutsch English Español Suomi Français Magyar Italiano Nederlands norsk Polski Português svenska Türkçe

 

Het Weer

Bhuj-Rudramata (Indië)

10:00, 1 april 2016 (GMT)

 
WE
 
Home            
Bhuj-Rudramata Rajkot Hyderabad Airport Ahmadabad Bhaunagar Karachi Airport Nawabshah Udaipur Dabok Jodhpur Sukkur Bombay / Santacruz Jacobabad Indore Kota Aerodrome Panjgur Aurangabad Chikalthan Aerodrome Khandwa Sibi Jaipur / Sanganer Bhopal / Bairagarh Multan Akola Jiwani

Om een weerknop op uw website of weblog te plaatsen, copieer onderstaande code en plak die in uw pagina. In het eerste vakje staat HTML-code, in het tweede vakje UBB-code.


Add to Google

Details

Wind speed:1 bf, 3 kn, 1.5 m/s, 3.5 miles/h, 5.6 km/h
Wind direction:NW, 320°
Visibility: 6000 m, 6.0 km, 19685 ft, 3.7 miles
Temperature:39°C, 102°F
Gefühlte Temperatur:36°C, 97°F
Dew-point:4°C, 39°F
Atmospheric pressure:1007 hPa, 755.3 mmHg, 29.74 inHg, 0.994 atm
Relative humidity:11.6 %
METAR:VABJ 011000Z 32003KT 6000 NSC 39/04 Q1007

Snelkoppelingen

Actuele weersinformatie van de hele wereld. Voeg locaties toe met het plus (+) symbool. Deze snelkoppelingen kunnen worden toegevoegd aan Google.

Lid van de Technetium groep

website free tracking
StatCounter NetStat W3C Validator

29-05-2017 11:27:37
astro.technetium.be money.technetium.be phote.technetium.be tafeltennistafel.technetium.be www.ligfiets.net